Time;durP1;ratioP1;P1;durP2;ratioP2;P2;SDS_P1;SDS_P2;PMS_P1;PMS_P2;Temp;Humidity;BMP_temperature;BMP_pressure;BME280_temperature;BME280_humidity;BME280_pressure;Samples;Min_cycle;Max_cycle;Signal;HPM_P1;HPM_P2
2023/09/12 00:00:50;;;;;;;16.88;12.02;;;17.00;58.40;;;;;;5002581;28;20049;-82
2023/09/12 00:03:37;;;;;;;21.42;11.68;;;16.90;99.90;;;;;;4988564;28;20061;-82
2023/09/12 00:06:25;;;;;;;16.55;10.93;;;16.90;99.90;;;;;;4981133;28;20499;-81
2023/09/12 00:09:14;;;;;;;16.08;11.50;;;16.90;99.90;;;;;;4985677;28;20042;-81
2023/09/12 00:12:02;;;;;;;18.00;11.55;;;17.00;99.90;;;;;;4991220;28;20559;-82
2023/09/12 00:14:50;;;;;;;19.33;11.73;;;17.10;99.90;;;;;;4981221;28;20054;-83
2023/09/12 00:17:39;;;;;;;17.10;11.38;;;17.20;1.00;;;;;;4992674;28;20061;-82
2023/09/12 00:20:27;;;;;;;27.95;10.95;;;17.30;1.00;;;;;;4995487;28;20046;-82
2023/09/12 00:23:15;;;;;;;17.75;10.48;;;17.30;99.90;;;;;;4979999;28;20321;-83
2023/09/12 00:26:02;;;;;;;19.40;11.60;;;17.30;99.90;;;;;;4993080;28;20054;-84
2023/09/12 00:28:49;;;;;;;18.63;11.07;;;17.30;1.00;;;;;;4994140;28;20054;-83
2023/09/12 00:31:37;;;;;;;17.58;11.20;;;17.30;1.00;;;;;;4987003;28;20058;-81
2023/09/12 00:34:24;;;;;;;23.27;11.50;;;17.30;1.00;;;;;;4988767;28;20437;-81
2023/09/12 00:37:12;;;;;;;16.92;11.40;;;17.20;1.00;;;;;;4978090;28;20043;-83
2023/09/12 00:40:02;;;;;;;15.68;10.60;;;17.30;1.00;;;;;;5001042;28;20050;-82
2023/09/12 00:42:49;;;;;;;19.70;11.23;;;17.30;1.00;;;;;;4996525;28;20042;-83
2023/09/12 00:45:39;;;;;;;18.52;10.63;;;17.30;99.90;;;;;;5003048;28;20054;-82
2023/09/12 00:48:27;;;;;;;17.17;10.60;;;17.30;99.90;;;;;;4990338;28;20046;-81
2023/09/12 00:51:20;;;;;;;18.27;10.20;;;17.30;99.90;;;;;;4994703;28;20070;-82
2023/09/12 00:54:08;;;;;;;19.52;10.55;;;17.40;99.90;;;;;;4982316;28;20054;-82
2023/09/12 00:56:55;;;;;;;17.08;10.85;;;17.20;30.50;;;;;;4991083;28;20053;-84
2023/09/12 00:59:45;;;;;;;14.93;10.85;;;17.10;65.80;;;;;;5001727;28;20037;-83
2023/09/12 01:02:32;;;;;;;16.73;10.70;;;17.10;99.90;;;;;;5000579;28;20046;-82
2023/09/12 01:05:21;;;;;;;19.05;11.57;;;17.00;99.90;;;;;;4991455;28;20065;-82
2023/09/12 01:08:09;;;;;;;17.05;10.52;;;16.90;54.20;;;;;;4998624;28;20050;-81
2023/09/12 01:10:58;;;;;;;19.80;11.20;;;16.90;99.90;;;;;;4996489;28;20051;-92
2023/09/12 01:13:46;;;;;;;20.83;10.73;;;16.90;99.90;;;;;;4997477;28;20057;-93
2023/09/12 01:16:34;;;;;;;20.67;11.00;;;16.80;99.90;;;;;;4991057;28;20139;-91
2023/09/12 01:19:29;;;;;;;20.63;10.80;;;16.80;99.90;;;;;;4986920;28;20042;-93
2023/09/12 01:22:38;;;;;;;16.85;11.25;;;16.80;99.90;;;;;;4990071;28;20054;-92
2023/09/12 01:25:36;;;;;;;22.55;11.02;;;16.70;99.90;;;;;;5005016;28;20078;-93
2023/09/12 01:28:34;;;;;;;21.65;11.57;;;16.60;1.00;;;;;;5015242;28;20046;-93
2023/09/12 01:31:29;;;;;;;19.60;11.05;;;16.50;9.40;;;;;;5019961;28;20033;-91
2023/09/12 01:34:18;;;;;;;17.50;11.68;;;16.40;99.10;;;;;;5017955;28;20046;-93
2023/09/12 01:37:11;;;;;;;22.35;12.80;;;16.40;99.90;;;;;;4995221;28;20098;-92
2023/09/12 01:40:25;;;;;;;18.80;11.70;;;16.50;99.90;;;;;;4992158;28;20054;-93
2023/09/12 01:43:39;;;;;;;19.17;11.85;;;16.50;99.90;;;;;;4940042;29;20071;-93
2023/09/12 01:46:43;;;;;;;22.05;12.20;;;16.60;99.90;;;;;;4938505;29;20058;-93
2023/09/12 01:49:33;;;;;;;18.90;12.02;;;16.50;99.90;;;;;;4912030;29;20052;-93
2023/09/12 01:52:24;;;;;;;18.42;11.77;;;16.50;99.90;;;;;;4927252;28;20059;-93
2023/09/12 01:55:22;;;;;;;16.65;11.23;;;16.50;99.90;;;;;;4993134;28;20041;-93
2023/09/12 01:58:14;;;;;;;17.92;11.40;;;16.50;99.90;;;;;;5000385;28;20046;-93
2023/09/12 02:01:27;;;;;;;16.10;11.20;;;16.40;99.90;;;;;;5007481;28;20065;-94
2023/09/12 02:04:35;;;;;;;;;;;;;;;;;;;;;
2023/09/12 02:07:32;;;;;;;21.80;13.13;;;16.20;99.90;;;;;;5031715;28;20022;-89
2023/09/12 02:10:23;;;;;;;16.70;12.30;;;16.20;99.90;;;;;;5015946;28;20049;-94
2023/09/12 02:13:18;;;;;;;21.33;11.80;;;16.20;99.90;;;;;;4999385;28;20061;-94
2023/09/12 02:16:07;;;;;;;22.70;12.85;;;16.10;99.90;;;;;;4998016;28;20070;-94
2023/09/12 02:19:16;;;;;;;19.02;13.18;;;16.10;99.90;;;;;;4997249;28;20070;-93
2023/09/12 02:22:04;;;;;;;21.90;12.52;;;16.10;99.90;;;;;;4993964;28;20424;-93
2023/09/12 02:25:06;;;;;;;19.55;12.35;;;16.00;99.90;;;;;;4993539;28;20129;-94
2023/09/12 02:28:05;;;;;;;;;;;;;;;;;;;;;
2023/09/12 02:31:12;;;;;;;18.77;13.25;;;15.90;99.90;;;;;;4998949;28;20050;-94
2023/09/12 02:34:01;;;;;;;20.80;14.20;;;15.90;99.90;;;;;;4992955;28;20046;-93
2023/09/12 02:36:53;;;;;;;22.88;14.27;;;15.90;99.90;;;;;;4994113;28;20058;-93
2023/09/12 02:39:41;;;;;;;19.42;14.50;;;15.80;99.90;;;;;;5000062;28;20070;-93
2023/09/12 02:42:37;;;;;;;24.23;14.20;;;15.80;99.90;;;;;;5011381;28;20050;-94
2023/09/12 02:45:25;;;;;;;25.08;14.32;;;15.80;99.90;;;;;;4983636;28;20055;-93
2023/09/12 02:48:31;;;;;;;23.38;14.85;;;15.90;99.90;;;;;;4997146;28;20047;-94
2023/09/12 02:51:41;;;;;;;;;;;;;;;;;;;;;
2023/09/12 02:54:49;;;;;;;26.42;13.65;;;16.00;99.90;;;;;;5001617;28;20119;-92
2023/09/12 02:57:49;;;;;;;21.27;13.65;;;16.10;99.90;;;;;;4995251;28;20523;-91
2023/09/12 03:01:55;;;;;;;23.98;13.77;;;16.10;99.90;;;;;;5003159;28;20038;-94
2023/09/12 03:05:05;;;;;;;;;;;;;;;;;;;;;
2023/09/12 03:08:20;;;;;;;24.70;14.35;;;16.30;99.90;;;;;;4939880;28;21307;-92
2023/09/12 03:11:19;;;;;;;;;;;;;;;;;;;;;
2023/09/12 03:14:11;;;;;;;24.20;14.32;;;16.40;99.90;;;;;;4993268;28;20181;-92
2023/09/12 03:17:00;;;;;;;20.02;13.60;;;16.40;99.90;;;;;;5001292;28;20142;-93
2023/09/12 03:19:58;;;;;;;20.55;13.88;;;16.30;99.90;;;;;;5006029;28;20467;-92
2023/09/12 03:22:47;;;;;;;23.40;14.23;;;16.20;99.90;;;;;;5015854;28;20053;-93
2023/09/12 03:25:42;;;;;;;20.42;14.43;;;16.10;99.90;;;;;;5012084;28;20073;-92
2023/09/12 03:28:55;;;;;;;21.13;14.18;;;16.00;99.90;;;;;;5016797;28;20066;-94
2023/09/12 03:31:50;;;;;;;22.30;14.65;;;15.90;99.90;;;;;;4997547;28;20047;-93
2023/09/12 03:36:13;;;;;;;20.85;14.57;;;16.00;99.90;;;;;;4956266;29;20081;-93
2023/09/12 03:38:52;;;;;;;19.75;13.38;;;16.10;99.90;;;;;;4967832;28;20043;-92
2023/09/12 03:41:44;;;;;;;22.40;15.10;;;16.30;99.90;;;;;;4953844;28;20046;-93
2023/09/12 03:44:45;;;;;;;23.67;13.70;;;16.40;99.90;;;;;;4943886;29;20048;-94
2023/09/12 03:48:24;;;;;;;;;;;;;;;;;;;;;
2023/09/12 03:51:19;;;;;;;24.08;13.98;;;16.40;99.90;;;;;;4987091;28;20053;-93
2023/09/12 03:54:27;;;;;;;24.15;14.02;;;16.50;99.90;;;;;;4999820;28;20049;-94
2023/09/12 04:11:10;;;;;;;21.58;13.45;;;16.80;1.00;;;;;;4895211;29;20051;-92
2023/09/12 04:19:21;;;;;;;17.80;13.07;;;16.70;99.90;;;;;;4693236;30;20073;-95
2023/09/12 04:22:55;;;;;;;;;;;;;;;;;;;;;
2023/09/12 04:26:44;;;;;;;;;;;;;;;;;;;;;
2023/09/12 04:29:41;;;;;;;20.17;13.60;;;16.40;1.00;;;;;;4772573;29;20075;-92
2023/09/12 04:33:38;;;;;;;18.65;13.80;;;16.40;1.00;;;;;;4892653;29;20048;-93
2023/09/12 04:53:19;;;;;;;22.60;15.07;;;15.80;99.90;;;;;;4858875;29;19944;-94
2023/09/12 04:56:53;;;;;;;22.92;15.15;;;15.70;99.90;;;;;;4884020;29;20045;-93
2023/09/12 05:00:00;;;;;;;17.33;14.43;;;15.70;99.90;;;;;;4994214;28;20061;-95
2023/09/12 05:03:20;;;;;;;;;;;;;;;;;;;;;
2023/09/12 05:06:17;;;;;;;24.75;16.08;;;15.70;99.90;;;;;;4993706;28;20049;-88
2023/09/12 05:09:05;;;;;;;21.30;14.82;;;15.70;99.90;;;;;;5001642;28;20074;-88
2023/09/12 05:11:52;;;;;;;21.75;14.75;;;15.80;99.90;;;;;;4987473;28;20042;-88
2023/09/12 05:14:47;;;;;;;23.77;15.20;;;15.80;99.90;;;;;;4991601;28;20047;-86
2023/09/12 05:17:36;;;;;;;21.95;16.38;;;15.90;99.90;;;;;;4994410;28;20061;-88
2023/09/12 05:20:23;;;;;;;21.83;15.23;;;15.90;99.90;;;;;;4993748;28;20375;-88
2023/09/12 05:23:10;;;;;;;20.85;15.45;;;16.00;99.90;;;;;;4992729;28;20456;-88
2023/09/12 05:26:00;;;;;;;24.90;15.02;;;16.10;99.90;;;;;;4994855;28;20108;-87
2023/09/12 05:28:47;;;;;;;18.90;13.93;;;16.20;99.90;;;;;;4995051;28;20056;-86
2023/09/12 05:31:35;;;;;;;20.98;14.80;;;16.40;99.90;;;;;;4986075;28;20046;-86
2023/09/12 05:34:22;;;;;;;21.83;13.07;;;16.60;99.90;;;;;;4991519;28;20046;-87
2023/09/12 05:37:10;;;;;;;20.85;13.52;;;16.70;99.90;;;;;;4983510;28;20050;-87
2023/09/12 05:39:57;;;;;;;17.67;12.50;;;16.90;99.90;;;;;;4995151;28;20045;-86
2023/09/12 05:42:44;;;;;;;19.73;12.02;;;17.30;99.90;;;;;;4986175;28;20046;-87
2023/09/12 05:45:32;;;;;;;17.05;11.52;;;17.40;99.90;;;;;;4991585;28;20093;-85
2023/09/12 05:48:20;;;;;;;18.63;12.30;;;17.60;1.00;;;;;;4988700;28;20042;-87
2023/09/12 05:51:07;;;;;;;19.85;11.90;;;17.70;99.90;;;;;;4996668;28;20490;-86
2023/09/12 05:53:54;;;;;;;18.95;11.75;;;17.90;99.90;;;;;;4997677;28;20042;-85
2023/09/12 05:56:42;;;;;;;15.20;10.88;;;18.10;99.90;;;;;;4985914;28;20139;-86
2023/09/12 05:59:31;;;;;;;20.13;11.93;;;18.30;99.90;;;;;;4992848;28;20066;-87
2023/09/12 06:02:18;;;;;;;17.92;10.90;;;18.60;1.00;;;;;;4997361;28;20057;-90
2023/09/12 06:05:06;;;;;;;16.83;10.52;;;18.80;1.00;;;;;;4989602;28;20046;-89
2023/09/12 06:07:54;;;;;;;14.38;10.80;;;18.90;98.00;;;;;;4982135;28;20081;-90
2023/09/12 06:10:41;;;;;;;16.73;10.38;;;19.00;99.90;;;;;;4985136;28;20061;-89
2023/09/12 06:13:28;;;;;;;16.02;10.65;;;19.00;99.90;;;;;;4988374;28;20046;-88
2023/09/12 06:16:16;;;;;;;17.42;10.75;;;19.20;99.90;;;;;;4979056;28;20042;-88
2023/09/12 06:19:05;;;;;;;15.88;11.23;;;19.20;99.90;;;;;;4997381;28;20042;-85
2023/09/12 06:21:53;;;;;;;17.52;10.35;;;19.40;1.00;;;;;;5019816;28;20073;-84
2023/09/12 06:24:40;;;;;;;14.25;10.43;;;19.50;1.00;;;;;;5016887;28;20047;-88
2023/09/12 06:27:28;;;;;;;11.93;10.13;;;19.70;99.90;;;;;;4993095;28;20065;-91
2023/09/12 06:30:15;;;;;;;15.98;9.95;;;19.80;99.90;;;;;;5005011;28;20050;-90
2023/09/12 06:33:03;;;;;;;17.10;9.52;;;19.90;99.90;;;;;;4992957;28;20046;-89
2023/09/12 06:35:52;;;;;;;17.90;9.70;;;20.00;99.90;;;;;;4990176;28;20400;-87
2023/09/12 06:38:42;;;;;;;18.60;9.27;;;19.80;99.90;;;;;;4989635;28;20058;-89
2023/09/12 06:41:29;;;;;;;16.52;9.30;;;19.70;99.90;;;;;;4981113;28;20132;-86
2023/09/12 06:44:16;;;;;;;21.95;10.07;;;19.50;99.90;;;;;;4986765;28;20149;-89
2023/09/12 06:47:07;;;;;;;20.40;11.00;;;19.30;99.90;;;;;;4995165;28;20042;-88
2023/09/12 06:49:54;;;;;;;19.83;10.63;;;19.30;99.90;;;;;;4988884;28;20046;-89
2023/09/12 06:52:44;;;;;;;17.02;10.60;;;19.30;99.90;;;;;;4990071;28;20053;-88
2023/09/12 06:55:32;;;;;;;12.55;10.43;;;19.20;99.90;;;;;;4990350;28;20057;-89
2023/09/12 06:58:19;;;;;;;14.60;10.80;;;19.30;99.90;;;;;;4988444;28;20129;-89
2023/09/12 07:01:29;;;;;;;13.30;10.63;;;19.50;99.90;;;;;;4987849;28;20126;-90
2023/09/12 07:04:17;;;;;;;16.73;10.15;;;19.60;99.90;;;;;;4988895;28;20094;-89
2023/09/12 07:07:04;;;;;;;15.88;11.43;;;19.90;99.90;;;;;;4988558;28;20448;-90
2023/09/12 07:09:52;;;;;;;16.50;10.13;;;20.10;1.00;;;;;;4986680;28;20207;-90
2023/09/12 07:12:53;;;;;;;16.88;9.43;;;20.30;1.00;;;;;;4993919;28;20093;-88
2023/09/12 07:15:40;;;;;;;22.70;10.85;;;20.60;99.90;;;;;;4990775;28;20035;-87
2023/09/12 07:18:28;;;;;;;19.27;10.70;;;20.60;99.90;;;;;;4998405;28;20257;-86
2023/09/12 07:21:15;;;;;;;15.63;10.57;;;20.80;1.00;;;;;;4993599;28;20113;-86
2023/09/12 07:24:05;;;;;;;20.35;10.60;;;21.00;1.00;;;;;;4987065;28;20058;-89
2023/09/12 07:26:53;;;;;;;12.63;9.38;;;21.30;1.00;;;;;;4997409;28;20050;-89
2023/09/12 07:29:41;;;;;;;12.77;9.63;;;21.70;99.90;;;;;;4990118;28;20046;-90
2023/09/12 07:32:28;;;;;;;16.75;9.75;;;22.00;90.50;;;;;;4985834;28;20047;-87
2023/09/12 07:35:16;;;;;;;15.40;9.32;;;22.30;1.00;;;;;;4985437;28;20077;-89
2023/09/12 07:38:03;;;;;;;13.07;9.68;;;22.50;1.00;;;;;;4988097;28;20061;-88
2023/09/12 07:40:51;;;;;;;11.82;9.13;;;22.70;99.90;;;;;;4991878;28;20065;-90
2023/09/12 07:43:38;;;;;;;16.13;10.05;;;22.90;99.90;;;;;;4984834;28;20073;-86
2023/09/12 07:46:26;;;;;;;15.77;9.32;;;23.30;99.90;;;;;;4993520;28;20136;-93
2023/09/12 07:49:16;;;;;;;10.52;8.90;;;23.50;99.90;;;;;;4998750;28;20181;-91
2023/09/12 07:52:06;;;;;;;11.25;8.93;;;23.70;99.90;;;;;;4982020;28;20096;-93
2023/09/12 07:55:00;;;;;;;14.10;8.93;;;23.90;99.90;;;;;;5000690;28;20042;-93
2023/09/12 07:57:47;;;;;;;11.95;9.52;;;24.10;44.20;;;;;;4994702;28;20043;-91
2023/09/12 08:00:37;;;;;;;10.27;8.73;;;24.10;1.00;;;;;;4990233;28;20473;-91
2023/09/12 08:03:25;;;;;;;13.95;9.25;;;24.00;1.00;;;;;;4996774;28;20057;-93
2023/09/12 08:06:16;;;;;;;10.80;8.38;;;24.00;1.00;;;;;;4988706;28;20049;-92
2023/09/12 08:09:04;;;;;;;18.23;9.40;;;23.80;1.00;;;;;;5007515;28;20125;-90
2023/09/12 08:11:51;;;;;;;14.63;8.95;;;23.80;1.00;;;;;;5004750;28;20107;-91
2023/09/12 08:14:39;;;;;;;10.48;9.00;;;23.80;1.00;;;;;;4999204;28;20054;-94
2023/09/12 08:17:27;;;;;;;14.77;9.82;;;23.80;1.00;;;;;;4993932;28;20069;-93
2023/09/12 08:20:15;;;;;;;14.75;9.95;;;23.80;1.00;;;;;;4996246;28;20150;-92
2023/09/12 08:23:03;;;;;;;15.60;9.88;;;23.70;1.00;;;;;;4997753;28;20050;-93
2023/09/12 08:25:52;;;;;;;11.25;8.90;;;23.70;4.70;;;;;;4996785;28;20042;-92
2023/09/12 08:28:40;;;;;;;13.10;9.07;;;24.50;1.00;;;;;;4985744;28;20057;-92
2023/09/12 08:31:29;;;;;;;11.80;8.30;;;25.80;1.00;;;;;;4999911;28;20051;-92
2023/09/12 08:35:08;;;;;;;13.48;7.85;;;26.90;99.90;;;;;;4999992;28;20058;-91
2023/09/12 08:38:11;;;;;;;11.77;8.10;;;27.60;99.90;;;;;;4984123;28;20060;-93
2023/09/12 08:41:00;;;;;;;9.30;7.90;;;28.10;99.90;;;;;;4997986;28;20053;-93
2023/09/12 08:44:36;;;;;;;11.57;7.93;;;28.20;99.90;;;;;;5000901;28;20502;-93
2023/09/12 08:47:26;;;;;;;11.20;7.40;;;28.80;99.90;;;;;;4995072;28;20479;-94
2023/09/12 08:50:48;;;;;;;10.13;6.95;;;29.50;99.90;;;;;;5001076;28;20058;-93
2023/09/12 08:53:36;;;;;;;11.10;7.10;;;30.60;99.90;;;;;;4992388;28;20057;-93
2023/09/12 08:56:36;;;;;;;7.90;6.22;;;31.00;99.90;;;;;;4989032;28;20054;-94
2023/09/12 08:59:26;;;;;;;9.38;6.60;;;32.00;99.90;;;;;;4996351;28;20058;-92
2023/09/12 09:02:15;;;;;;;8.38;6.75;;;31.80;99.90;;;;;;4981648;28;20053;-92
2023/09/12 09:05:07;;;;;;;12.95;7.13;;;31.80;99.90;;;;;;4999827;28;20046;-95
2023/09/12 09:07:55;;;;;;;;;;;31.80;99.90;;;;;;4987521;28;20337;-94
2023/09/12 09:11:05;;;;;;;14.23;7.20;;;31.70;99.90;;;;;;4988906;28;19957;-95
2023/09/12 09:14:06;;;;;;;7.03;5.93;;;33.00;99.90;;;;;;4988151;28;20047;-92
2023/09/12 09:16:58;;;;;;;7.30;6.20;;;34.40;99.90;;;;;;5007889;28;20062;-91
2023/09/12 09:19:49;;;;;;;7.93;6.10;;;35.60;81.40;;;;;;5009685;28;20034;-92
2023/09/12 09:22:36;;;;;;;12.13;6.60;;;35.90;48.90;;;;;;5007545;28;20054;-92
2023/09/12 09:25:27;;;;;;;9.20;6.75;;;35.20;46.20;;;;;;4983220;28;20427;-94
2023/09/12 09:28:39;;;;;;;9.20;7.03;;;35.10;38.30;;;;;;5002806;28;20051;-93
2023/09/12 09:31:41;;;;;;;9.57;6.22;;;34.50;32.60;;;;;;4985733;28;20042;-94
2023/09/12 09:34:32;;;;;;;8.65;6.32;;;35.10;28.70;;;;;;4994684;28;20490;-94
2023/09/12 09:38:05;;;;;;;9.32;6.47;;;36.10;19.30;;;;;;5004199;28;20049;-93
2023/09/12 09:41:33;;;;;;;;;;;;;;;;;;;;;
2023/09/12 09:45:10;;;;;;;12.35;6.70;;;34.70;9.70;;;;;;4988998;28;20043;-94
2023/09/12 09:48:04;;;;;;;13.63;6.20;;;35.70;1.00;;;;;;5011322;28;20084;-92
2023/09/12 09:51:05;;;;;;;10.07;6.93;;;36.20;1.00;;;;;;5002501;28;20080;-93
2023/09/12 09:54:15;;;;;;;8.80;5.40;;;36.50;1.00;;;;;;4988377;28;20144;-94
2023/09/12 09:57:07;;;;;;;11.40;5.53;;;37.80;1.00;;;;;;4973951;28;20077;-93
2023/09/12 09:59:56;;;;;;;11.95;6.40;;;36.60;1.00;;;;;;4990432;28;20051;-93
2023/09/12 10:02:48;;;;;;;8.32;6.00;;;35.90;1.00;;;;;;5004153;28;20057;-94
2023/09/12 10:05:38;;;;;;;11.50;6.60;;;35.40;1.00;;;;;;5000616;28;20061;-93
2023/09/12 10:12:22;;;;;;;10.20;5.80;;;35.70;1.00;;;;;;4993559;28;20133;-93
2023/09/12 10:15:22;;;;;;;;;;;;;;;;;;;;;
2023/09/12 10:18:31;;;;;;;8.52;5.75;;;35.70;1.00;;;;;;4994764;28;20054;-94
2023/09/12 10:21:32;;;;;;;9.68;5.28;;;35.90;1.00;;;;;;4995615;28;20491;-93
2023/09/12 10:24:29;;;;;;;8.02;5.50;;;35.40;1.00;;;;;;4985819;28;20053;-92
2023/09/12 10:27:25;;;;;;;7.63;5.20;;;36.00;1.00;;;;;;4986957;28;20057;-94
2023/09/12 10:30:26;;;;;;;;;;;;;;;;;;;;;
2023/09/12 10:33:37;;;;;;;7.20;5.20;;;37.20;1.00;;;;;;5000103;28;20018;-91
2023/09/12 10:36:27;;;;;;;9.45;4.43;;;36.10;1.00;;;;;;5004231;28;20058;-90
2023/09/12 10:39:15;;;;;;;9.95;4.72;;;35.80;1.00;;;;;;4992695;28;20129;-93
2023/09/12 10:42:29;;;;;;;7.13;5.05;;;36.30;1.00;;;;;;5001397;28;20045;-93
2023/09/12 10:45:37;;;;;;;6.80;5.05;;;36.20;1.00;;;;;;4989618;28;20042;-94
2023/09/12 10:48:28;;;;;;;6.78;5.18;;;35.80;1.00;;;;;;4977883;28;20066;-92
2023/09/12 10:51:48;;;;;;;8.70;5.03;;;36.10;1.00;;;;;;5013466;28;20049;-90
2023/09/12 10:54:46;;;;;;;8.40;4.93;;;36.60;1.00;;;;;;4997959;28;20057;-95
2023/09/12 10:57:34;;;;;;;6.55;4.60;;;35.40;1.00;;;;;;4991837;28;20114;-94
2023/09/12 11:00:22;;;;;;;9.82;4.93;;;34.90;1.00;;;;;;4987101;28;20062;-96
2023/09/12 11:03:32;;;;;;;6.55;4.47;;;35.30;1.00;;;;;;4997550;28;20042;-92
2023/09/12 11:06:44;;;;;;;7.18;4.90;;;36.30;1.00;;;;;;4987530;28;20060;-94
2023/09/12 11:09:32;;;;;;;11.32;4.70;;;38.20;1.00;;;;;;4984172;28;20037;-94
2023/09/12 11:17:11;;;;;;;7.22;4.28;;;39.90;1.00;;;;;;4976794;28;20118;-92
2023/09/12 11:20:22;;;;;;;5.97;4.80;;;40.30;1.00;;;;;;4997753;28;20054;-92
2023/09/12 11:23:14;;;;;;;6.10;4.72;;;39.20;1.00;;;;;;4981800;28;20046;-92
2023/09/12 11:26:12;;;;;;;6.57;4.40;;;38.90;1.00;;;;;;4984980;28;20066;-92
2023/09/12 11:29:20;;;;;;;8.85;4.63;;;39.20;1.00;;;;;;4983341;28;20098;-92
2023/09/12 11:32:09;;;;;;;5.95;4.50;;;39.40;1.00;;;;;;5004032;28;20341;-92
2023/09/12 11:35:14;;;;;;;5.30;4.22;;;40.10;1.00;;;;;;5002316;28;20057;-94
2023/09/12 11:38:37;;;;;;;8.10;4.63;;;41.40;1.00;;;;;;5010700;28;20051;-93
2023/09/12 11:41:42;;;;;;;8.80;5.03;;;40.10;1.00;;;;;;5008213;28;20050;-93
2023/09/12 11:44:32;;;;;;;8.90;4.60;;;39.00;1.00;;;;;;5012764;28;20061;-94
2023/09/12 11:47:46;;;;;;;5.60;4.82;;;39.90;1.00;;;;;;5013559;28;20065;-93
2023/09/12 11:50:44;;;;;;;6.65;4.72;;;39.80;1.00;;;;;;5007661;28;20030;-94
2023/09/12 11:53:42;;;;;;;7.38;4.55;;;39.60;1.00;;;;;;4998390;28;20043;-94
2023/09/12 11:56:49;;;;;;;;;;;;;;;;;;;;;
2023/09/12 11:59:51;;;;;;;4.97;3.95;;;40.30;1.00;;;;;;5026481;28;20034;-91
2023/09/12 12:06:12;;;;;;;;;;;;;;;;;;;;;
2023/09/12 12:12:51;;;;;;;;;;;42.90;1.00;;;;;;5000058;28;20040;-90
2023/09/12 12:15:54;;;;;;;8.43;5.40;;;42.20;1.00;;;;;;4998645;28;19965;-91
2023/09/12 12:19:12;;;;;;;;;;;;;;;;;;;;;
2023/09/12 12:23:09;;;;;;;8.50;4.85;;;38.10;1.00;;;;;;4988230;28;20452;-93
2023/09/12 12:25:56;;;;;;;12.05;4.82;;;37.20;1.00;;;;;;4990040;28;20155;-92
2023/09/12 12:28:55;;;;;;;5.75;4.45;;;37.50;1.00;;;;;;4990092;28;20043;-92
2023/09/12 12:32:10;;;;;;;6.07;4.35;;;38.50;1.00;;;;;;4984121;28;20476;-94
2023/09/12 12:35:09;;;;;;;5.40;4.90;;;38.60;1.00;;;;;;4973935;28;20043;-94
2023/09/12 12:38:37;;;;;;;7.80;5.03;;;37.50;1.00;;;;;;4983525;28;20487;-93
2023/09/12 12:42:12;;;;;;;6.95;5.05;;;37.60;1.00;;;;;;4946040;28;20098;-96
2023/09/12 12:45:25;;;;;;;5.88;4.70;;;38.20;1.00;;;;;;4970312;28;20054;-95
2023/09/12 12:48:35;;;;;;;5.40;4.88;;;38.70;1.00;;;;;;4973325;28;20039;-94
2023/09/12 12:51:46;;;;;;;6.45;4.75;;;39.40;1.00;;;;;;4978843;28;20082;-92
2023/09/12 12:54:54;;;;;;;;;;;;;;;;;;;;;
2023/09/12 12:58:04;;;;;;;6.75;4.60;;;37.40;1.00;;;;;;4979614;28;20138;-92
2023/09/12 13:00:55;;;;;;;9.13;5.15;;;37.80;1.00;;;;;;4970563;28;20054;-94
2023/09/12 13:04:00;;;;;;;8.77;5.72;;;37.30;1.00;;;;;;4979150;28;20039;-94
2023/09/12 13:06:48;;;;;;;9.10;4.95;;;36.50;1.00;;;;;;4980812;28;20051;-94
2023/09/12 13:09:58;;;;;;;9.15;5.47;;;37.00;1.00;;;;;;4973843;28;20436;-90
2023/09/12 13:12:49;;;;;;;8.63;5.07;;;36.60;1.00;;;;;;4981295;28;20046;-94
2023/09/12 13:15:42;;;;;;;10.23;5.15;;;37.20;1.00;;;;;;4962991;28;20055;-93
2023/09/12 13:18:50;;;;;;;;;;;38.60;1.00;;;;;;4968519;28;20075;-90
2023/09/12 13:21:37;;;;;;;5.30;4.80;;;39.60;1.00;;;;;;4977078;28;19981;-93
2023/09/12 13:24:26;;;;;;;9.95;5.50;;;39.90;1.00;;;;;;4970937;28;20047;-92
2023/09/12 13:27:16;;;;;;;9.80;5.57;;;37.50;1.00;;;;;;4969834;28;20050;-93
2023/09/12 13:30:05;;;;;;;8.52;5.00;;;35.70;1.00;;;;;;4965086;28;20357;-92
2023/09/12 13:32:53;;;;;;;10.60;6.10;;;35.00;1.00;;;;;;4961204;28;20043;-90
2023/09/12 13:36:08;;;;;;;11.77;5.82;;;35.40;1.00;;;;;;4968054;28;20039;-91
2023/09/12 13:38:56;;;;;;;13.27;6.10;;;36.40;1.00;;;;;;4956704;28;20123;-90
2023/09/12 13:41:48;;;;;;;9.23;5.75;;;36.00;1.00;;;;;;4976758;28;20487;-91
2023/09/12 13:44:40;;;;;;;11.57;6.28;;;35.50;1.00;;;;;;4974383;28;20467;-92
2023/09/12 13:47:32;;;;;;;10.68;5.70;;;36.50;1.00;;;;;;4970717;28;20047;-93
2023/09/12 13:50:28;;;;;;;8.75;5.68;;;37.90;1.00;;;;;;4969900;28;20042;-93
2023/09/12 13:53:19;;;;;;;10.25;5.82;;;39.30;1.00;;;;;;4969517;28;20058;-92
2023/09/12 13:56:14;;;;;;;11.30;6.13;;;39.70;1.00;;;;;;4978654;28;20376;-92
2023/09/12 13:59:05;;;;;;;11.23;6.15;;;39.90;1.00;;;;;;4966838;28;20070;-94
2023/09/12 14:02:10;;;;;;;9.88;6.35;;;40.30;1.00;;;;;;4964581;28;20145;-91
2023/09/12 14:05:26;;;;;;;12.95;5.88;;;40.20;1.00;;;;;;4967912;28;20047;-93
2023/09/12 14:08:15;;;;;;;9.32;5.90;;;39.80;1.00;;;;;;4974836;28;20043;-94
2023/09/12 14:11:03;;;;;;;11.02;6.13;;;39.10;1.00;;;;;;4975212;28;20124;-93
2023/09/12 14:13:52;;;;;;;14.93;6.18;;;36.60;1.00;;;;;;4971200;28;20078;-91
2023/09/12 14:17:08;;;;;;;32.42;8.32;;;34.40;1.00;;;;;;4973257;28;20110;-93
2023/09/12 14:20:01;;;;;;;14.95;6.93;;;32.80;1.00;;;;;;4974382;28;20039;-94
2023/09/12 14:22:49;;;;;;;15.43;6.78;;;31.90;1.00;;;;;;4985525;28;20050;-92
2023/09/12 14:25:38;;;;;;;11.30;6.50;;;31.50;1.00;;;;;;4980078;28;20058;-91
2023/09/12 14:28:28;;;;;;;11.65;6.75;;;31.00;1.00;;;;;;4992350;28;20109;-86
2023/09/12 14:31:16;;;;;;;12.27;6.38;;;30.50;1.00;;;;;;4999010;28;20125;-89
2023/09/12 14:34:06;;;;;;;13.27;6.75;;;30.20;1.00;;;;;;4986049;28;20051;-88
2023/09/12 14:37:05;;;;;;;15.77;7.40;;;29.90;1.00;;;;;;4975066;29;20461;-91
2023/09/12 14:39:56;;;;;;;13.68;7.28;;;29.70;1.00;;;;;;4975261;29;20043;-94
2023/09/12 14:42:43;;;;;;;12.45;6.57;;;29.60;1.00;;;;;;4963604;29;20047;-92
2023/09/12 14:45:33;;;;;;;13.38;6.55;;;29.40;1.00;;;;;;4966419;28;20042;-92
2023/09/12 14:48:20;;;;;;;10.07;6.90;;;29.30;1.00;;;;;;4971693;28;20444;-94
2023/09/12 14:51:11;;;;;;;14.63;6.60;;;29.20;1.00;;;;;;4968221;28;20055;-92
2023/09/12 14:54:10;;;;;;;11.45;6.57;;;29.20;1.00;;;;;;4979790;28;20043;-93
2023/09/12 14:56:57;;;;;;;14.18;7.40;;;29.00;1.00;;;;;;4965622;28;20074;-92
2023/09/12 14:59:45;;;;;;;15.00;6.60;;;29.00;1.00;;;;;;4986147;28;20047;-92
2023/09/12 15:02:35;;;;;;;12.20;6.82;;;29.00;1.00;;;;;;4982237;28;20050;-93
2023/09/12 15:05:23;;;;;;;13.65;6.57;;;28.90;1.00;;;;;;4979382;28;20043;-94
2023/09/12 15:08:11;;;;;;;14.07;6.45;;;28.90;1.00;;;;;;4991099;28;20045;-93
2023/09/12 15:10:59;;;;;;;16.10;7.25;;;29.30;1.00;;;;;;4983267;28;20057;-92
2023/09/12 15:13:51;;;;;;;11.90;6.30;;;29.70;1.00;;;;;;4988006;28;20043;-92
2023/09/12 15:16:39;;;;;;;11.30;6.28;;;29.70;1.00;;;;;;4983293;28;20464;-93
2023/09/12 15:19:27;;;;;;;10.93;6.22;;;29.40;1.00;;;;;;4983792;28;20057;-93
2023/09/12 15:25:27;;;;;;;10.38;6.30;;;28.80;1.00;;;;;;4959724;29;20047;-92
2023/09/12 15:28:14;;;;;;;14.75;7.30;;;28.50;1.00;;;;;;4973167;28;20047;-92
2023/09/12 15:31:04;;;;;;;15.55;6.80;;;28.10;1.00;;;;;;4981255;28;20051;-90
2023/09/12 15:33:51;;;;;;;9.93;7.10;;;27.90;1.00;;;;;;4971604;28;20681;-93
2023/09/12 15:36:47;;;;;;;16.17;6.93;;;27.70;1.00;;;;;;4996200;28;20047;-92
2023/09/12 15:39:34;;;;;;;15.40;6.90;;;27.50;1.00;;;;;;4972762;28;20047;-92
2023/09/12 15:42:22;;;;;;;12.50;6.70;;;27.40;1.00;;;;;;4988814;28;20114;-92
2023/09/12 15:45:21;;;;;;;14.75;6.75;;;27.20;1.00;;;;;;4965394;28;20133;-91
2023/09/12 15:48:09;;;;;;;11.85;7.40;;;27.20;1.00;;;;;;4975433;28;20461;-92
2023/09/12 15:50:57;;;;;;;11.60;6.65;;;27.20;1.00;;;;;;4969643;28;20047;-93
2023/09/12 15:53:45;;;;;;;9.60;6.93;;;27.40;1.00;;;;;;4977576;28;20122;-93
2023/09/12 15:56:33;;;;;;;13.02;6.93;;;27.60;1.00;;;;;;4971748;28;20483;-93
2023/09/12 15:59:21;;;;;;;12.15;6.57;;;27.90;1.00;;;;;;4971584;28;20138;-94
2023/09/12 16:02:11;;;;;;;12.40;6.65;;;28.60;1.00;;;;;;4976711;28;20062;-92
2023/09/12 16:05:01;;;;;;;12.52;6.75;;;29.60;1.00;;;;;;4973924;28;20512;-93
2023/09/12 16:07:52;;;;;;;17.23;7.43;;;30.30;1.00;;;;;;4977360;28;20047;-94
2023/09/12 16:10:47;;;;;;;17.50;6.95;;;30.60;1.00;;;;;;4974200;28;20464;-95
2023/09/12 16:13:44;;;;;;;14.18;7.13;;;30.10;1.00;;;;;;4981028;28;20062;-94
2023/09/12 16:16:37;;;;;;;13.73;7.22;;;29.40;1.00;;;;;;4971942;28;20077;-92
2023/09/12 16:19:26;;;;;;;12.80;6.88;;;28.90;1.00;;;;;;4975198;28;20051;-94
2023/09/12 16:22:16;;;;;;;12.45;7.38;;;28.60;1.00;;;;;;4971579;28;20163;-94
2023/09/12 16:25:04;;;;;;;10.57;6.80;;;28.40;1.00;;;;;;4978513;28;20153;-92
2023/09/12 16:27:52;;;;;;;18.75;7.40;;;28.30;1.00;;;;;;4981931;28;20051;-92